sensor_id;sensor_type;location;lat;lon;timestamp;pressure;altitude;pressure_sealevel;temperature;humidity
43147;BME280;28752;48.266;7.402;2023-02-04T00:00:54;100972.84;;;8.84;81.69
43147;BME280;28752;48.266;7.402;2023-02-04T00:03:19;100992.00;;;8.74;81.71
43147;BME280;28752;48.266;7.402;2023-02-04T00:05:44;100980.88;;;8.83;81.46
43147;BME280;28752;48.266;7.402;2023-02-04T00:08:10;100978.41;;;8.80;81.72
43147;BME280;28752;48.266;7.402;2023-02-04T00:10:36;100972.00;;;8.84;81.96
43147;BME280;28752;48.266;7.402;2023-02-04T00:13:02;100966.53;;;8.73;81.92
43147;BME280;28752;48.266;7.402;2023-02-04T00:15:28;100979.56;;;8.76;82.39
43147;BME280;28752;48.266;7.402;2023-02-04T00:17:54;100962.03;;;8.75;82.33
43147;BME280;28752;48.266;7.402;2023-02-04T00:20:19;100960.22;;;8.61;82.82
43147;BME280;28752;48.266;7.402;2023-02-04T00:22:45;100974.66;;;8.69;83.24
43147;BME280;28752;48.266;7.402;2023-02-04T00:25:11;100969.38;;;8.69;83.02
43147;BME280;28752;48.266;7.402;2023-02-04T00:27:36;100974.56;;;8.71;83.11
43147;BME280;28752;48.266;7.402;2023-02-04T00:30:05;100959.84;;;8.67;82.90
43147;BME280;28752;48.266;7.402;2023-02-04T00:32:31;100965.06;;;8.68;83.15
43147;BME280;28752;48.266;7.402;2023-02-04T00:34:58;100965.22;;;8.65;83.47
43147;BME280;28752;48.266;7.402;2023-02-04T00:37:23;100956.84;;;8.59;83.74
43147;BME280;28752;48.266;7.402;2023-02-04T00:39:49;100979.47;;;8.63;83.76
43147;BME280;28752;48.266;7.402;2023-02-04T00:42:15;100976.75;;;8.64;83.84
43147;BME280;28752;48.266;7.402;2023-02-04T00:44:40;100982.88;;;8.65;83.78
43147;BME280;28752;48.266;7.402;2023-02-04T00:47:06;100977.03;;;8.60;84.08
43147;BME280;28752;48.266;7.402;2023-02-04T00:49:34;100977.41;;;8.68;83.93
43147;BME280;28752;48.266;7.402;2023-02-04T00:52:00;100979.75;;;8.73;83.15
43147;BME280;28752;48.266;7.402;2023-02-04T00:54:26;100949.59;;;8.48;83.26
43147;BME280;28752;48.266;7.402;2023-02-04T00:56:51;100960.91;;;8.50;83.05
43147;BME280;28752;48.266;7.402;2023-02-04T00:59:16;100955.22;;;8.42;82.18
43147;BME280;28752;48.266;7.402;2023-02-04T01:01:42;100969.69;;;8.50;82.39
43147;BME280;28752;48.266;7.402;2023-02-04T01:04:08;100943.44;;;8.33;83.04
43147;BME280;28752;48.266;7.402;2023-02-04T01:06:33;100973.06;;;8.38;83.28
43147;BME280;28752;48.266;7.402;2023-02-04T01:08:59;100977.50;;;8.52;83.17
43147;BME280;28752;48.266;7.402;2023-02-04T01:11:26;100972.41;;;8.49;84.07
43147;BME280;28752;48.266;7.402;2023-02-04T01:13:52;100967.34;;;8.46;83.00
43147;BME280;28752;48.266;7.402;2023-02-04T01:16:17;100965.13;;;8.38;83.79
43147;BME280;28752;48.266;7.402;2023-02-04T01:18:43;100964.50;;;8.49;82.64
43147;BME280;28752;48.266;7.402;2023-02-04T01:21:08;100966.53;;;8.29;82.70
43147;BME280;28752;48.266;7.402;2023-02-04T01:23:34;100974.81;;;8.38;83.85
43147;BME280;28752;48.266;7.402;2023-02-04T01:26:00;100957.22;;;8.38;83.00
43147;BME280;28752;48.266;7.402;2023-02-04T01:28:25;100966.63;;;8.28;82.67
43147;BME280;28752;48.266;7.402;2023-02-04T01:30:50;100973.22;;;8.35;82.69
43147;BME280;28752;48.266;7.402;2023-02-04T01:33:16;100961.63;;;8.23;82.30
43147;BME280;28752;48.266;7.402;2023-02-04T01:35:41;100974.25;;;8.18;83.89
43147;BME280;28752;48.266;7.402;2023-02-04T01:38:07;100973.22;;;8.21;83.59
43147;BME280;28752;48.266;7.402;2023-02-04T01:40:33;100975.47;;;8.12;83.30
43147;BME280;28752;48.266;7.402;2023-02-04T01:42:59;100979.69;;;8.00;83.29
43147;BME280;28752;48.266;7.402;2023-02-04T01:45:24;100981.19;;;8.05;82.93
43147;BME280;28752;48.266;7.402;2023-02-04T01:47:50;100988.25;;;7.90;83.78
43147;BME280;28752;48.266;7.402;2023-02-04T01:50:16;100979.06;;;7.81;84.24
43147;BME280;28752;48.266;7.402;2023-02-04T01:52:43;100959.97;;;7.77;84.98
43147;BME280;28752;48.266;7.402;2023-02-04T01:55:17;100971.38;;;7.92;85.41
43147;BME280;28752;48.266;7.402;2023-02-04T01:57:44;100970.63;;;7.90;85.29
43147;BME280;28752;48.266;7.402;2023-02-04T02:00:21;100973.63;;;7.84;85.49
43147;BME280;28752;48.266;7.402;2023-02-04T02:02:50;100978.50;;;7.76;84.91
43147;BME280;28752;48.266;7.402;2023-02-04T02:05:18;100985.19;;;7.81;86.11
43147;BME280;28752;48.266;7.402;2023-02-04T02:07:46;100980.88;;;7.80;85.47
43147;BME280;28752;48.266;7.402;2023-02-04T02:10:12;100970.09;;;7.69;85.29
43147;BME280;28752;48.266;7.402;2023-02-04T02:12:39;100964.91;;;7.68;85.78
43147;BME280;28752;48.266;7.402;2023-02-04T02:15:06;100954.19;;;7.71;85.30
43147;BME280;28752;48.266;7.402;2023-02-04T02:17:31;100974.06;;;7.76;86.04
43147;BME280;28752;48.266;7.402;2023-02-04T02:19:58;100974.97;;;7.91;87.71
43147;BME280;28752;48.266;7.402;2023-02-04T02:25:31;100965.22;;;8.08;86.74
43147;BME280;28752;48.266;7.402;2023-02-04T02:27:57;100979.69;;;8.15;86.39
43147;BME280;28752;48.266;7.402;2023-02-04T02:30:23;100980.47;;;8.17;86.92
43147;BME280;28752;48.266;7.402;2023-02-04T02:32:50;100977.06;;;8.15;86.70
43147;BME280;28752;48.266;7.402;2023-02-04T02:35:16;100981.50;;;8.29;86.81
43147;BME280;28752;48.266;7.402;2023-02-04T02:37:42;100985.84;;;8.30;85.67
43147;BME280;28752;48.266;7.402;2023-02-04T02:40:08;100980.38;;;8.18;85.43
43147;BME280;28752;48.266;7.402;2023-02-04T02:42:35;100973.88;;;8.10;84.91
43147;BME280;28752;48.266;7.402;2023-02-04T02:45:05;100988.66;;;8.12;84.77
43147;BME280;28752;48.266;7.402;2023-02-04T02:47:31;100988.59;;;7.83;85.77
43147;BME280;28752;48.266;7.402;2023-02-04T02:49:56;100993.63;;;8.03;85.34
43147;BME280;28752;48.266;7.402;2023-02-04T02:52:22;100986.00;;;7.98;87.68
43147;BME280;28752;48.266;7.402;2023-02-04T02:54:47;100982.25;;;8.02;87.46
43147;BME280;28752;48.266;7.402;2023-02-04T02:57:19;100979.22;;;8.08;87.71
43147;BME280;28752;48.266;7.402;2023-02-04T02:59:45;100980.00;;;8.25;86.92
43147;BME280;28752;48.266;7.402;2023-02-04T03:02:13;100978.97;;;8.42;86.96
43147;BME280;28752;48.266;7.402;2023-02-04T03:04:43;100976.84;;;8.48;87.01
43147;BME280;28752;48.266;7.402;2023-02-04T03:07:10;100975.81;;;8.51;87.71
43147;BME280;28752;48.266;7.402;2023-02-04T03:09:37;100986.75;;;8.45;88.47
43147;BME280;28752;48.266;7.402;2023-02-04T03:12:03;100984.03;;;8.30;89.88
43147;BME280;28752;48.266;7.402;2023-02-04T03:14:30;100985.09;;;8.42;89.91
43147;BME280;28752;48.266;7.402;2023-02-04T03:16:56;100968.53;;;8.54;89.95
43147;BME280;28752;48.266;7.402;2023-02-04T03:19:22;100980.69;;;8.43;90.89
43147;BME280;28752;48.266;7.402;2023-02-04T03:21:48;100979.34;;;8.35;92.02
43147;BME280;28752;48.266;7.402;2023-02-04T03:24:13;100981.31;;;8.32;92.85
43147;BME280;28752;48.266;7.402;2023-02-04T03:26:39;100975.28;;;8.30;94.21
43147;BME280;28752;48.266;7.402;2023-02-04T03:29:07;100965.94;;;8.24;94.10
43147;BME280;28752;48.266;7.402;2023-02-04T03:31:33;100957.28;;;8.22;93.93
43147;BME280;28752;48.266;7.402;2023-02-04T03:33:58;100966.63;;;8.28;94.24
43147;BME280;28752;48.266;7.402;2023-02-04T03:36:23;100954.09;;;8.17;95.69
43147;BME280;28752;48.266;7.402;2023-02-04T03:38:49;100957.84;;;8.13;95.63
43147;BME280;28752;48.266;7.402;2023-02-04T03:41:16;100962.94;;;8.30;94.49
43147;BME280;28752;48.266;7.402;2023-02-04T03:43:41;100963.03;;;8.14;94.99
43147;BME280;28752;48.266;7.402;2023-02-04T03:46:07;100955.31;;;8.11;94.95
43147;BME280;28752;48.266;7.402;2023-02-04T03:48:32;100962.94;;;8.16;95.06
43147;BME280;28752;48.266;7.402;2023-02-04T03:50:57;100951.72;;;8.27;94.75
43147;BME280;28752;48.266;7.402;2023-02-04T03:53:23;100965.28;;;8.21;94.44
43147;BME280;28752;48.266;7.402;2023-02-04T03:55:48;100962.84;;;8.17;94.91
43147;BME280;28752;48.266;7.402;2023-02-04T03:58:14;100960.66;;;8.24;94.69
43147;BME280;28752;48.266;7.402;2023-02-04T04:00:39;100970.47;;;8.22;93.72
43147;BME280;28752;48.266;7.402;2023-02-04T04:03:04;100965.22;;;8.22;94.15
43147;BME280;28752;48.266;7.402;2023-02-04T04:05:30;100961.63;;;8.23;93.85
43147;BME280;28752;48.266;7.402;2023-02-04T04:07:55;100972.75;;;8.28;93.04
43147;BME280;28752;48.266;7.402;2023-02-04T04:10:21;100962.84;;;8.17;93.85
43147;BME280;28752;48.266;7.402;2023-02-04T04:12:46;100984.78;;;8.18;93.44
43147;BME280;28752;48.266;7.402;2023-02-04T04:15:12;100976.41;;;8.26;93.57
43147;BME280;28752;48.266;7.402;2023-02-04T04:17:37;100975.75;;;8.22;93.84
43147;BME280;28752;48.266;7.402;2023-02-04T04:20:03;100977.38;;;8.25;93.91
43147;BME280;28752;48.266;7.402;2023-02-04T04:22:28;100970.00;;;8.30;92.97
43147;BME280;28752;48.266;7.402;2023-02-04T04:24:54;100980.28;;;8.34;93.33
43147;BME280;28752;48.266;7.402;2023-02-04T04:27:19;100973.22;;;8.21;93.88
43147;BME280;28752;48.266;7.402;2023-02-04T04:29:45;100977.19;;;8.28;94.07
43147;BME280;28752;48.266;7.402;2023-02-04T04:32:10;100959.47;;;8.15;94.68
43147;BME280;28752;48.266;7.402;2023-02-04T04:34:36;100973.88;;;8.24;94.28
43147;BME280;28752;48.266;7.402;2023-02-04T04:37:01;100974.06;;;8.35;93.47
43147;BME280;28752;48.266;7.402;2023-02-04T04:39:26;100959.91;;;8.36;92.74
43147;BME280;28752;48.266;7.402;2023-02-04T04:41:52;100967.84;;;8.36;93.12
43147;BME280;28752;48.266;7.402;2023-02-04T04:44:17;100944.38;;;8.17;92.50
43147;BME280;28752;48.266;7.402;2023-02-04T04:46:42;100957.13;;;8.40;92.49
43147;BME280;28752;48.266;7.402;2023-02-04T04:49:08;100948.06;;;8.29;92.53
43147;BME280;28752;48.266;7.402;2023-02-04T04:51:33;100961.53;;;8.39;92.41
43147;BME280;28752;48.266;7.402;2023-02-04T04:53:58;100955.59;;;8.35;92.51
43147;BME280;28752;48.266;7.402;2023-02-04T04:56:24;100973.13;;;8.36;92.49
43147;BME280;28752;48.266;7.402;2023-02-04T04:58:49;100971.63;;;8.32;92.38
43147;BME280;28752;48.266;7.402;2023-02-04T05:01:15;100959.19;;;8.34;92.09
43147;BME280;28752;48.266;7.402;2023-02-04T05:03:40;100948.63;;;8.34;92.42
43147;BME280;28752;48.266;7.402;2023-02-04T05:06:06;100961.06;;;8.32;92.31
43147;BME280;28752;48.266;7.402;2023-02-04T05:08:32;100977.75;;;8.33;92.71
43147;BME280;28752;48.266;7.402;2023-02-04T05:11:00;100959.66;;;8.27;92.55
43147;BME280;28752;48.266;7.402;2023-02-04T05:13:25;100965.28;;;8.35;92.34
43147;BME280;28752;48.266;7.402;2023-02-04T05:15:51;100966.34;;;8.32;92.21
43147;BME280;28752;48.266;7.402;2023-02-04T05:18:16;100961.63;;;8.38;92.01
43147;BME280;28752;48.266;7.402;2023-02-04T05:20:41;100963.63;;;8.34;91.60
43147;BME280;28752;48.266;7.402;2023-02-04T05:23:07;100965.03;;;8.40;92.07
43147;BME280;28752;48.266;7.402;2023-02-04T05:25:32;100965.13;;;8.38;91.56
43147;BME280;28752;48.266;7.402;2023-02-04T05:27:57;100965.63;;;8.45;91.18
43147;BME280;28752;48.266;7.402;2023-02-04T05:30:23;100967.69;;;8.40;92.40
43147;BME280;28752;48.266;7.402;2023-02-04T05:32:48;100963.81;;;8.31;92.62
43147;BME280;28752;48.266;7.402;2023-02-04T05:35:14;100982.28;;;8.31;93.04
43147;BME280;28752;48.266;7.402;2023-02-04T05:37:39;100986.75;;;8.45;92.21
43147;BME280;28752;48.266;7.402;2023-02-04T05:40:05;100996.28;;;8.47;91.55
43147;BME280;28752;48.266;7.402;2023-02-04T05:42:31;100980.44;;;8.47;90.86
43147;BME280;28752;48.266;7.402;2023-02-04T05:44:56;100994.28;;;8.51;91.01
43147;BME280;28752;48.266;7.402;2023-02-04T05:47:21;100977.13;;;8.58;89.72
43147;BME280;28752;48.266;7.402;2023-02-04T05:49:47;100970.06;;;8.44;90.25
43147;BME280;28752;48.266;7.402;2023-02-04T05:52:13;100986.91;;;8.56;90.59
43147;BME280;28752;48.266;7.402;2023-02-04T05:54:38;100990.63;;;8.53;90.78
43147;BME280;28752;48.266;7.402;2023-02-04T05:57:04;100990.63;;;8.53;91.40
43147;BME280;28752;48.266;7.402;2023-02-04T05:59:29;101000.41;;;8.51;90.88
43147;BME280;28752;48.266;7.402;2023-02-04T06:01:55;100993.81;;;8.59;89.86
43147;BME280;28752;48.266;7.402;2023-02-04T06:04:20;101003.91;;;8.52;90.61
43147;BME280;28752;48.266;7.402;2023-02-04T06:06:45;100999.19;;;8.57;90.32
43147;BME280;28752;48.266;7.402;2023-02-04T06:09:11;101000.22;;;8.54;90.08
43147;BME280;28752;48.266;7.402;2023-02-04T06:11:37;101005.41;;;8.56;90.49
43147;BME280;28752;48.266;7.402;2023-02-04T06:14:03;101010.13;;;8.51;90.60
43147;BME280;28752;48.266;7.402;2023-02-04T06:16:28;101001.47;;;8.49;90.43
43147;BME280;28752;48.266;7.402;2023-02-04T06:18:54;101005.13;;;8.61;90.45
43147;BME280;28752;48.266;7.402;2023-02-04T06:21:19;101004.19;;;8.62;90.17
43147;BME280;28752;48.266;7.402;2023-02-04T06:23:44;101010.88;;;8.53;90.47
43147;BME280;28752;48.266;7.402;2023-02-04T06:26:10;100997.13;;;8.48;90.14
43147;BME280;28752;48.266;7.402;2023-02-04T06:28:36;101009.56;;;8.60;90.31
43147;BME280;28752;48.266;7.402;2023-02-04T06:31:01;101001.34;;;8.65;89.18
43147;BME280;28752;48.266;7.402;2023-02-04T06:33:26;100994.28;;;8.51;89.49
43147;BME280;28752;48.266;7.402;2023-02-04T06:35:52;101000.78;;;8.60;89.57
43147;BME280;28752;48.266;7.402;2023-02-04T06:38:17;100995.81;;;8.55;89.22
43147;BME280;28752;48.266;7.402;2023-02-04T06:40:43;101000.78;;;8.60;89.14
43147;BME280;28752;48.266;7.402;2023-02-04T06:43:09;101015.56;;;8.62;89.25
43147;BME280;28752;48.266;7.402;2023-02-04T06:45:34;101021.81;;;8.61;89.38
43147;BME280;28752;48.266;7.402;2023-02-04T06:48:00;101017.09;;;8.66;88.81
43147;BME280;28752;48.266;7.402;2023-02-04T06:50:26;101025.22;;;8.63;89.30
43147;BME280;28752;48.266;7.402;2023-02-04T06:52:51;101025.50;;;8.59;89.22
43147;BME280;28752;48.266;7.402;2023-02-04T06:55:16;101025.22;;;8.63;89.09
43147;BME280;28752;48.266;7.402;2023-02-04T06:57:42;101021.63;;;8.64;89.31
43147;BME280;28752;48.266;7.402;2023-02-04T07:00:09;101032.38;;;8.61;89.56
43147;BME280;28752;48.266;7.402;2023-02-04T07:02:35;101032.56;;;8.58;90.19
43147;BME280;28752;48.266;7.402;2023-02-04T07:05:02;101036.78;;;8.61;89.99
43147;BME280;28752;48.266;7.402;2023-02-04T07:07:27;101039.84;;;8.69;89.50
43147;BME280;28752;48.266;7.402;2023-02-04T07:09:53;101035.69;;;8.65;89.28
43147;BME280;28752;48.266;7.402;2023-02-04T07:12:18;101048.97;;;8.63;89.38
43147;BME280;28752;48.266;7.402;2023-02-04T07:14:43;101048.97;;;8.63;89.23
43147;BME280;28752;48.266;7.402;2023-02-04T07:17:09;101051.53;;;8.65;89.14
43147;BME280;28752;48.266;7.402;2023-02-04T07:19:34;101060.38;;;8.64;89.94
43147;BME280;28752;48.266;7.402;2023-02-04T07:22:01;101065.66;;;8.64;90.31
43147;BME280;28752;48.266;7.402;2023-02-04T07:24:26;101081.91;;;8.72;89.46
43147;BME280;28752;48.266;7.402;2023-02-04T07:26:52;101096.31;;;8.66;90.22
43147;BME280;28752;48.266;7.402;2023-02-04T07:29:17;101100.84;;;8.64;90.48
43147;BME280;28752;48.266;7.402;2023-02-04T07:31:44;101100.25;;;8.59;91.15
43147;BME280;28752;48.266;7.402;2023-02-04T07:34:11;101107.25;;;8.60;91.77
43147;BME280;28752;48.266;7.402;2023-02-04T07:36:36;101101.34;;;8.41;95.42
43147;BME280;28752;48.266;7.402;2023-02-04T07:39:01;101115.63;;;8.36;97.95
43147;BME280;28752;48.266;7.402;2023-02-04T07:41:27;101110.50;;;8.19;100.00
43147;BME280;28752;48.266;7.402;2023-02-04T07:43:52;101115.88;;;8.17;100.00
43147;BME280;28752;48.266;7.402;2023-02-04T07:46:17;101117.44;;;8.06;100.00
43147;BME280;28752;48.266;7.402;2023-02-04T07:48:43;101117.44;;;8.06;100.00
43147;BME280;28752;48.266;7.402;2023-02-04T07:51:09;101096.13;;;7.94;100.00
43147;BME280;28752;48.266;7.402;2023-02-04T07:53:34;101113.63;;;7.95;100.00
43147;BME280;28752;48.266;7.402;2023-02-04T07:56:00;101116.06;;;7.98;100.00
43147;BME280;28752;48.266;7.402;2023-02-04T07:58:25;101111.84;;;7.96;100.00
43147;BME280;28752;48.266;7.402;2023-02-04T08:00:50;101111.84;;;7.96;100.00
43147;BME280;28752;48.266;7.402;2023-02-04T08:03:16;101127.59;;;7.97;100.00
43147;BME280;28752;48.266;7.402;2023-02-04T08:05:41;101130.56;;;7.91;100.00
43147;BME280;28752;48.266;7.402;2023-02-04T08:08:07;101139.94;;;7.81;100.00
43147;BME280;28752;48.266;7.402;2023-02-04T08:10:32;101142.22;;;7.71;100.00
43147;BME280;28752;48.266;7.402;2023-02-04T08:12:58;101143.44;;;7.65;100.00
43147;BME280;28752;48.266;7.402;2023-02-04T08:15:23;101138.75;;;7.55;100.00
43147;BME280;28752;48.266;7.402;2023-02-04T08:17:49;101138.94;;;7.52;100.00
43147;BME280;28752;48.266;7.402;2023-02-04T08:20:14;101147.41;;;7.57;100.00
43147;BME280;28752;48.266;7.402;2023-02-04T08:22:40;101153.97;;;7.50;100.00
43147;BME280;28752;48.266;7.402;2023-02-04T08:25:05;101163.50;;;7.52;100.00
43147;BME280;28752;48.266;7.402;2023-02-04T08:27:31;101163.06;;;7.44;100.00
43147;BME280;28752;48.266;7.402;2023-02-04T08:29:56;101170.28;;;7.40;100.00
43147;BME280;28752;48.266;7.402;2023-02-04T08:32:22;101169.84;;;7.32;100.00
43147;BME280;28752;48.266;7.402;2023-02-04T08:34:47;101171.69;;;7.30;100.00
43147;BME280;28752;48.266;7.402;2023-02-04T08:37:14;101184.44;;;7.22;100.00
43147;BME280;28752;48.266;7.402;2023-02-04T08:39:39;101174.56;;;7.09;100.00
43147;BME280;28752;48.266;7.402;2023-02-04T08:42:11;101197.78;;;7.19;100.00
43147;BME280;28752;48.266;7.402;2023-02-04T08:44:36;101199.09;;;7.10;100.00
43147;BME280;28752;48.266;7.402;2023-02-04T08:47:01;101189.81;;;7.03;100.00
43147;BME280;28752;48.266;7.402;2023-02-04T08:49:26;101189.66;;;7.06;100.00
43147;BME280;28752;48.266;7.402;2023-02-04T08:51:52;101189.47;;;7.09;100.00
43147;BME280;28752;48.266;7.402;2023-02-04T08:54:17;101186.47;;;7.17;100.00
43147;BME280;28752;48.266;7.402;2023-02-04T08:56:43;101190.03;;;7.16;100.00
43147;BME280;28752;48.266;7.402;2023-02-04T08:59:08;101192.75;;;7.14;100.00
43147;BME280;28752;48.266;7.402;2023-02-04T09:01:33;101197.69;;;7.20;100.00
43147;BME280;28752;48.266;7.402;2023-02-04T09:03:59;101200.25;;;7.22;100.00
43147;BME280;28752;48.266;7.402;2023-02-04T09:06:24;101206.19;;;7.25;100.00
43147;BME280;28752;48.266;7.402;2023-02-04T09:08:49;101185.91;;;7.27;100.00
43147;BME280;28752;48.266;7.402;2023-02-04T09:11:15;101189.97;;;7.33;100.00
43147;BME280;28752;48.266;7.402;2023-02-04T09:13:40;101204.88;;;7.34;100.00
43147;BME280;28752;48.266;7.402;2023-02-04T09:16:05;101202.81;;;7.23;100.00
43147;BME280;28752;48.266;7.402;2023-02-04T09:18:31;101197.38;;;7.26;100.00
43147;BME280;28752;48.266;7.402;2023-02-04T09:20:57;101205.19;;;7.28;100.00
43147;BME280;28752;48.266;7.402;2023-02-04T09:23:22;101219.03;;;7.32;100.00
43147;BME280;28752;48.266;7.402;2023-02-04T09:25:49;101226.53;;;7.06;100.00
43147;BME280;28752;48.266;7.402;2023-02-04T09:28:14;101235.91;;;6.76;100.00
43147;BME280;28752;48.266;7.402;2023-02-04T09:30:43;101229.84;;;6.39;100.00
43147;BME280;28752;48.266;7.402;2023-02-04T09:33:10;101238.28;;;6.46;100.00
43147;BME280;28752;48.266;7.402;2023-02-04T09:35:36;101242.06;;;6.40;100.00
43147;BME280;28752;48.266;7.402;2023-02-04T09:38:02;101243.84;;;6.40;100.00
43147;BME280;28752;48.266;7.402;2023-02-04T09:40:30;101250.84;;;6.58;100.00
43147;BME280;28752;48.266;7.402;2023-02-04T09:42:59;101231.03;;;6.51;100.00
43147;BME280;28752;48.266;7.402;2023-02-04T09:45:26;101247.91;;;6.47;100.00
43147;BME280;28752;48.266;7.402;2023-02-04T09:47:53;101225.50;;;6.38;100.00
43147;BME280;28752;48.266;7.402;2023-02-04T09:50:21;101237.28;;;6.49;100.00
43147;BME280;28752;48.266;7.402;2023-02-04T09:52:49;101241.09;;;6.61;100.00
43147;BME280;28752;48.266;7.402;2023-02-04T09:55:17;101247.06;;;6.64;100.00
43147;BME280;28752;48.266;7.402;2023-02-04T09:57:44;101246.06;;;6.67;100.00
43147;BME280;28752;48.266;7.402;2023-02-04T10:00:19;101246.22;;;6.81;100.00
43147;BME280;28752;48.266;7.402;2023-02-04T10:02:45;101240.47;;;6.90;100.00
43147;BME280;28752;48.266;7.402;2023-02-04T10:05:36;101245.03;;;7.04;100.00
43147;BME280;28752;48.266;7.402;2023-02-04T10:08:04;101232.81;;;7.03;100.00
43147;BME280;28752;48.266;7.402;2023-02-04T10:10:30;101252.53;;;7.12;100.00
43147;BME280;28752;48.266;7.402;2023-02-04T10:13:00;101249.06;;;7.29;100.00
43147;BME280;28752;48.266;7.402;2023-02-04T10:15:27;101243.88;;;7.27;100.00
43147;BME280;28752;48.266;7.402;2023-02-04T10:17:57;101254.91;;;7.52;100.00
43147;BME280;28752;48.266;7.402;2023-02-04T10:20:23;101258.06;;;7.58;100.00
43147;BME280;28752;48.266;7.402;2023-02-04T10:22:52;101253.66;;;7.75;100.00
43147;BME280;28752;48.266;7.402;2023-02-04T10:25:19;101251.91;;;7.91;100.00
43147;BME280;28752;48.266;7.402;2023-02-04T10:27:56;101253.75;;;7.89;100.00
43147;BME280;28752;48.266;7.402;2023-02-04T10:30:30;101245.75;;;8.23;100.00
43147;BME280;28752;48.266;7.402;2023-02-04T10:32:59;101251.88;;;8.39;100.00
43147;BME280;28752;48.266;7.402;2023-02-04T10:35:44;101252.25;;;8.49;100.00
43147;BME280;28752;48.266;7.402;2023-02-04T10:38:10;101249.66;;;8.63;100.00
43147;BME280;28752;48.266;7.402;2023-02-04T10:40:35;101249.81;;;8.76;99.29
43147;BME280;28752;48.266;7.402;2023-02-04T10:43:15;101243.56;;;8.77;99.09
43147;BME280;28752;48.266;7.402;2023-02-04T10:45:46;101246.03;;;8.80;97.44
43147;BME280;28752;48.266;7.402;2023-02-04T10:48:16;101248.41;;;8.85;96.78
43147;BME280;28752;48.266;7.402;2023-02-04T10:50:41;101239.06;;;8.79;96.56
43147;BME280;28752;48.266;7.402;2023-02-04T10:53:09;101240.09;;;8.77;97.11
43147;BME280;28752;48.266;7.402;2023-02-04T10:55:54;101244.47;;;8.92;98.59
43147;BME280;28752;48.266;7.402;2023-02-04T10:58:26;101244.88;;;8.70;96.95
43147;BME280;28752;48.266;7.402;2023-02-04T11:00:52;101236.09;;;8.69;97.63
43147;BME280;28752;48.266;7.402;2023-02-04T11:03:21;101236.41;;;8.79;97.17
43147;BME280;28752;48.266;7.402;2023-02-04T11:05:47;101235.53;;;8.64;97.66
43147;BME280;28752;48.266;7.402;2023-02-04T11:08:42;101232.63;;;8.69;98.20
43147;BME280;28752;48.266;7.402;2023-02-04T11:13:44;101239.28;;;8.60;100.00
43147;BME280;28752;48.266;7.402;2023-02-04T11:16:26;101239.53;;;8.86;99.06
43147;BME280;28752;48.266;7.402;2023-02-04T11:19:00;101238.88;;;8.82;96.63
43147;BME280;28752;48.266;7.402;2023-02-04T11:26:48;101233.50;;;8.38;90.44
43147;BME280;28752;48.266;7.402;2023-02-04T11:29:30;101248.47;;;8.37;89.21
43147;BME280;28752;48.266;7.402;2023-02-04T11:32:26;101256.66;;;8.32;89.49
43147;BME280;28752;48.266;7.402;2023-02-04T11:34:49;101246.72;;;8.22;89.73
43147;BME280;28752;48.266;7.402;2023-02-04T11:39:57;101256.31;;;8.39;90.01
43147;BME280;28752;48.266;7.402;2023-02-04T11:42:38;101264.50;;;8.34;88.29
43147;BME280;28752;48.266;7.402;2023-02-04T11:45:15;101251.38;;;8.32;89.27
43147;BME280;28752;48.266;7.402;2023-02-04T11:47:42;101251.88;;;8.39;88.90
43147;BME280;28752;48.266;7.402;2023-02-04T11:50:22;101242.09;;;8.57;88.35
43147;BME280;28752;48.266;7.402;2023-02-04T11:52:53;101244.47;;;8.62;86.51
43147;BME280;28752;48.266;7.402;2023-02-04T11:55:19;101252.56;;;8.59;85.11
43147;BME280;28752;48.266;7.402;2023-02-04T11:57:45;101254.94;;;8.63;84.49
43147;BME280;28752;48.266;7.402;2023-02-04T12:00:21;101242.81;;;8.75;87.18
43147;BME280;28752;48.266;7.402;2023-02-04T12:03:16;101247.75;;;8.96;84.42
43147;BME280;28752;48.266;7.402;2023-02-04T12:05:43;101248.41;;;8.85;83.43
43147;BME280;28752;48.266;7.402;2023-02-04T12:13:25;101252.38;;;8.62;84.75
43147;BME280;28752;48.266;7.402;2023-02-04T12:15:53;101250.00;;;8.57;83.52
43147;BME280;28752;48.266;7.402;2023-02-04T12:18:18;101244.19;;;8.66;83.98
43147;BME280;28752;48.266;7.402;2023-02-04T12:20:44;101249.25;;;8.85;84.39
43147;BME280;28752;48.266;7.402;2023-02-04T12:23:09;101240.53;;;8.99;83.87
43147;BME280;28752;48.266;7.402;2023-02-04T12:25:34;101233.94;;;9.06;82.89
43147;BME280;28752;48.266;7.402;2023-02-04T12:28:00;101250.72;;;9.20;82.42
43147;BME280;28752;48.266;7.402;2023-02-04T12:30:25;101255.47;;;9.15;83.08
43147;BME280;28752;48.266;7.402;2023-02-04T12:32:51;101251.59;;;9.35;83.82
43147;BME280;28752;48.266;7.402;2023-02-04T12:35:17;101248.38;;;9.44;82.43
43147;BME280;28752;48.266;7.402;2023-02-04T12:37:43;101254.16;;;9.36;81.54
43147;BME280;28752;48.266;7.402;2023-02-04T12:40:16;101247.44;;;9.02;81.40
43147;BME280;28752;48.266;7.402;2023-02-04T12:42:42;101249.84;;;8.91;82.47
43147;BME280;28752;48.266;7.402;2023-02-04T12:45:08;101254.19;;;8.92;80.94
43147;BME280;28752;48.266;7.402;2023-02-04T12:47:33;101253.47;;;9.04;82.32
43147;BME280;28752;48.266;7.402;2023-02-04T12:49:59;101255.19;;;9.19;81.20
43147;BME280;28752;48.266;7.402;2023-02-04T12:52:25;101253.59;;;9.31;78.65
43147;BME280;28752;48.266;7.402;2023-02-04T12:54:50;101249.78;;;9.06;79.30
43147;BME280;28752;48.266;7.402;2023-02-04T12:57:15;101252.81;;;9.00;79.08
43147;BME280;28752;48.266;7.402;2023-02-04T12:59:47;101257.63;;;9.22;78.36
43147;BME280;28752;48.266;7.402;2023-02-04T13:02:15;101253.84;;;9.12;79.03
43147;BME280;28752;48.266;7.402;2023-02-04T13:04:40;101245.66;;;9.31;78.27
43147;BME280;28752;48.266;7.402;2023-02-04T13:07:09;101256.03;;;9.49;76.13
43147;BME280;28752;48.266;7.402;2023-02-04T13:09:35;101258.69;;;9.49;76.23
43147;BME280;28752;48.266;7.402;2023-02-04T13:12:01;101254.16;;;9.36;75.07
43147;BME280;28752;48.266;7.402;2023-02-04T13:14:26;101215.56;;;9.34;76.82